In Rescue
 
Open Full Screen Window  High Contrast Mode
Wind Gusting 15 knots
07
October 25, 2021 5:10 PM EDT
Present Weather: Light Drizzle
Weather Information
Wind Direction
  350 °
Wind Speed
  07 kt (8 mph)
Wind Gust
  15 kt (17 mph)
Altimeter
29.88 in
Visibility
10 SM
Temperature
08° C
46° F
Dewpoint
07° C
45° F
Humidity
93%
1hr Rain Fall
00.00 in.
24hr Rain Fall
01.30 in.
Sky Condition
Overcast @ 1,900 ft
Broken @ 1,200 ft
MVFR

METAR KY70 252110Z AUTO 35007G15KT 10SM -DZ BKN012 OVC019 08/07 A2988 RMK AO2 T00790070

FAA Disclaimer: The data displayed is for advisory purposes only and is not to be used for flight planning or operations.